Terminal Aerodrome Forecast
Issued by NWS

Home | Current Version | Previous Version | Text Only | Print | Product List | Glossary On
Versions: 1 2 3 4 5 6 7 8 9 10 11 12
811
FTUS45 KABQ 241743
TAFTCC
TAF
KTCC 241743Z 2418/2518 21011KT P6SM SCT150
     FM242000 15011G21KT P6SM SCT110
     FM250100 04015G25KT P6SM VCTS BKN090CB
     FM250500 VRB06KT P6SM BKN100=

USA.gov is the U.S. government's official web portal to all federal, state and local government web resources and services.